sensor_id;sensor_type;location;lat;lon;timestamp;P1;durP1;ratioP1;P2;durP2;ratioP2
52043;SDS011;38053;53.100;6.078;2023-07-02T00:01:46;31.63;;;11.32;;
52043;SDS011;38053;53.100;6.078;2023-07-02T00:04:12;30.27;;;10.65;;
52043;SDS011;38053;53.100;6.078;2023-07-02T00:06:41;31.30;;;10.93;;
52043;SDS011;38053;53.100;6.078;2023-07-02T00:09:11;27.17;;;11.53;;
52043;SDS011;38053;53.100;6.078;2023-07-02T00:11:41;25.52;;;10.18;;
52043;SDS011;38053;53.100;6.078;2023-07-02T00:14:09;30.50;;;11.75;;
52043;SDS011;38053;53.100;6.078;2023-07-02T00:16:37;28.75;;;9.90;;
52043;SDS011;38053;53.100;6.078;2023-07-02T00:19:05;28.83;;;9.37;;
52043;SDS011;38053;53.100;6.078;2023-07-02T00:21:31;27.60;;;10.38;;
52043;SDS011;38053;53.100;6.078;2023-07-02T00:23:58;32.67;;;11.00;;
52043;SDS011;38053;53.100;6.078;2023-07-02T00:26:25;41.95;;;11.38;;
52043;SDS011;38053;53.100;6.078;2023-07-02T00:28:52;28.60;;;10.27;;
52043;SDS011;38053;53.100;6.078;2023-07-02T00:31:19;27.77;;;9.95;;
52043;SDS011;38053;53.100;6.078;2023-07-02T00:33:45;26.55;;;9.25;;
52043;SDS011;38053;53.100;6.078;2023-07-02T00:36:14;28.77;;;11.05;;
52043;SDS011;38053;53.100;6.078;2023-07-02T00:38:41;26.08;;;10.02;;
52043;SDS011;38053;53.100;6.078;2023-07-02T00:41:07;35.42;;;11.27;;
52043;SDS011;38053;53.100;6.078;2023-07-02T00:43:34;27.00;;;10.13;;
52043;SDS011;38053;53.100;6.078;2023-07-02T00:46:00;26.15;;;10.57;;
52043;SDS011;38053;53.100;6.078;2023-07-02T00:48:27;27.83;;;10.90;;
52043;SDS011;38053;53.100;6.078;2023-07-02T00:50:55;30.08;;;10.88;;
52043;SDS011;38053;53.100;6.078;2023-07-02T00:53:21;32.30;;;12.15;;
52043;SDS011;38053;53.100;6.078;2023-07-02T00:55:46;32.53;;;11.43;;
52043;SDS011;38053;53.100;6.078;2023-07-02T00:58:12;37.45;;;12.93;;
52043;SDS011;38053;53.100;6.078;2023-07-02T01:00:41;31.75;;;11.60;;
52043;SDS011;38053;53.100;6.078;2023-07-02T01:03:07;33.22;;;12.73;;
52043;SDS011;38053;53.100;6.078;2023-07-02T01:05:33;33.22;;;12.68;;
52043;SDS011;38053;53.100;6.078;2023-07-02T01:08:04;35.20;;;11.80;;
52043;SDS011;38053;53.100;6.078;2023-07-02T01:10:30;28.85;;;11.38;;
52043;SDS011;38053;53.100;6.078;2023-07-02T01:13:19;28.73;;;10.73;;
52043;SDS011;38053;53.100;6.078;2023-07-02T01:15:45;30.98;;;11.30;;
52043;SDS011;38053;53.100;6.078;2023-07-02T01:18:11;27.58;;;10.60;;
52043;SDS011;38053;53.100;6.078;2023-07-02T01:20:39;27.85;;;11.85;;
52043;SDS011;38053;53.100;6.078;2023-07-02T01:23:06;37.33;;;12.80;;
52043;SDS011;38053;53.100;6.078;2023-07-02T01:25:32;30.55;;;12.18;;
52043;SDS011;38053;53.100;6.078;2023-07-02T01:28:02;34.78;;;12.15;;
52043;SDS011;38053;53.100;6.078;2023-07-02T01:30:28;29.65;;;9.98;;
52043;SDS011;38053;53.100;6.078;2023-07-02T01:32:54;46.25;;;12.32;;
52043;SDS011;38053;53.100;6.078;2023-07-02T01:35:19;33.28;;;12.20;;
52043;SDS011;38053;53.100;6.078;2023-07-02T01:37:45;25.58;;;10.73;;
52043;SDS011;38053;53.100;6.078;2023-07-02T01:40:11;33.42;;;11.73;;
52043;SDS011;38053;53.100;6.078;2023-07-02T01:42:37;27.55;;;10.27;;
52043;SDS011;38053;53.100;6.078;2023-07-02T01:45:03;27.95;;;11.25;;
52043;SDS011;38053;53.100;6.078;2023-07-02T01:47:29;37.15;;;12.90;;
52043;SDS011;38053;53.100;6.078;2023-07-02T01:49:55;31.10;;;12.20;;
52043;SDS011;38053;53.100;6.078;2023-07-02T01:52:21;36.47;;;11.55;;
52043;SDS011;38053;53.100;6.078;2023-07-02T01:54:46;38.47;;;11.02;;
52043;SDS011;38053;53.100;6.078;2023-07-02T01:57:12;27.27;;;10.88;;
52043;SDS011;38053;53.100;6.078;2023-07-02T01:59:38;29.48;;;12.02;;
52043;SDS011;38053;53.100;6.078;2023-07-02T02:02:04;39.97;;;13.98;;
52043;SDS011;38053;53.100;6.078;2023-07-02T02:04:29;33.75;;;11.60;;
52043;SDS011;38053;53.100;6.078;2023-07-02T02:06:55;32.08;;;11.95;;
52043;SDS011;38053;53.100;6.078;2023-07-02T02:09:21;37.75;;;12.63;;
52043;SDS011;38053;53.100;6.078;2023-07-02T02:11:50;26.95;;;10.70;;
52043;SDS011;38053;53.100;6.078;2023-07-02T02:14:17;29.83;;;12.70;;
52043;SDS011;38053;53.100;6.078;2023-07-02T02:16:43;26.15;;;10.57;;
52043;SDS011;38053;53.100;6.078;2023-07-02T02:19:13;29.90;;;11.63;;
52043;SDS011;38053;53.100;6.078;2023-07-02T02:21:41;30.33;;;12.85;;
52043;SDS011;38053;53.100;6.078;2023-07-02T02:24:08;33.65;;;13.27;;
52043;SDS011;38053;53.100;6.078;2023-07-02T02:26:34;29.90;;;10.60;;
52043;SDS011;38053;53.100;6.078;2023-07-02T02:29:00;30.77;;;12.05;;
52043;SDS011;38053;53.100;6.078;2023-07-02T02:31:26;27.88;;;10.45;;
52043;SDS011;38053;53.100;6.078;2023-07-02T02:33:52;43.78;;;13.32;;
52043;SDS011;38053;53.100;6.078;2023-07-02T02:36:18;31.33;;;11.82;;
52043;SDS011;38053;53.100;6.078;2023-07-02T02:38:43;33.33;;;11.88;;
52043;SDS011;38053;53.100;6.078;2023-07-02T02:41:09;39.00;;;11.95;;
52043;SDS011;38053;53.100;6.078;2023-07-02T02:43:35;31.45;;;11.60;;
52043;SDS011;38053;53.100;6.078;2023-07-02T02:46:01;40.05;;;14.93;;
52043;SDS011;38053;53.100;6.078;2023-07-02T02:48:26;37.92;;;13.13;;
52043;SDS011;38053;53.100;6.078;2023-07-02T02:50:52;32.95;;;12.27;;
52043;SDS011;38053;53.100;6.078;2023-07-02T02:53:17;37.70;;;13.50;;
52043;SDS011;38053;53.100;6.078;2023-07-02T02:55:43;32.35;;;10.80;;
52043;SDS011;38053;53.100;6.078;2023-07-02T02:58:09;29.77;;;11.27;;
52043;SDS011;38053;53.100;6.078;2023-07-02T03:00:35;37.10;;;11.73;;
52043;SDS011;38053;53.100;6.078;2023-07-02T03:03:00;31.33;;;11.07;;
52043;SDS011;38053;53.100;6.078;2023-07-02T03:05:27;34.47;;;12.32;;
52043;SDS011;38053;53.100;6.078;2023-07-02T03:07:53;37.03;;;12.13;;
52043;SDS011;38053;53.100;6.078;2023-07-02T03:10:19;41.55;;;13.55;;
52043;SDS011;38053;53.100;6.078;2023-07-02T03:12:45;39.35;;;13.10;;
52043;SDS011;38053;53.100;6.078;2023-07-02T03:15:10;34.65;;;12.38;;
52043;SDS011;38053;53.100;6.078;2023-07-02T03:17:36;31.88;;;11.05;;
52043;SDS011;38053;53.100;6.078;2023-07-02T03:20:02;29.70;;;10.90;;
52043;SDS011;38053;53.100;6.078;2023-07-02T03:22:29;37.72;;;11.82;;
52043;SDS011;38053;53.100;6.078;2023-07-02T03:24:55;30.55;;;10.55;;
52043;SDS011;38053;53.100;6.078;2023-07-02T03:27:21;35.20;;;11.13;;
52043;SDS011;38053;53.100;6.078;2023-07-02T03:29:46;32.83;;;10.35;;
52043;SDS011;38053;53.100;6.078;2023-07-02T03:32:12;33.25;;;12.00;;
52043;SDS011;38053;53.100;6.078;2023-07-02T03:34:38;39.30;;;11.18;;
52043;SDS011;38053;53.100;6.078;2023-07-02T03:37:03;30.40;;;10.35;;
52043;SDS011;38053;53.100;6.078;2023-07-02T03:39:29;34.83;;;11.45;;
52043;SDS011;38053;53.100;6.078;2023-07-02T03:41:55;33.28;;;10.00;;
52043;SDS011;38053;53.100;6.078;2023-07-02T03:44:21;28.58;;;10.23;;
52043;SDS011;38053;53.100;6.078;2023-07-02T03:46:46;26.75;;;10.77;;
52043;SDS011;38053;53.100;6.078;2023-07-02T03:49:12;31.42;;;9.75;;
52043;SDS011;38053;53.100;6.078;2023-07-02T03:51:38;29.42;;;10.27;;
52043;SDS011;38053;53.100;6.078;2023-07-02T03:54:03;27.35;;;9.65;;
52043;SDS011;38053;53.100;6.078;2023-07-02T03:56:29;35.78;;;12.23;;
52043;SDS011;38053;53.100;6.078;2023-07-02T03:58:55;32.80;;;10.18;;
52043;SDS011;38053;53.100;6.078;2023-07-02T04:01:21;27.27;;;11.38;;
52043;SDS011;38053;53.100;6.078;2023-07-02T04:03:50;25.23;;;11.15;;
52043;SDS011;38053;53.100;6.078;2023-07-02T04:06:17;26.45;;;10.90;;
52043;SDS011;38053;53.100;6.078;2023-07-02T04:08:44;39.38;;;11.70;;
52043;SDS011;38053;53.100;6.078;2023-07-02T04:11:10;31.50;;;11.32;;
52043;SDS011;38053;53.100;6.078;2023-07-02T04:13:37;29.58;;;9.68;;
52043;SDS011;38053;53.100;6.078;2023-07-02T04:16:03;31.40;;;10.10;;
52043;SDS011;38053;53.100;6.078;2023-07-02T04:18:29;31.52;;;9.55;;
52043;SDS011;38053;53.100;6.078;2023-07-02T04:20:55;32.33;;;11.77;;
52043;SDS011;38053;53.100;6.078;2023-07-02T04:23:21;30.52;;;8.90;;
52043;SDS011;38053;53.100;6.078;2023-07-02T04:25:47;19.30;;;9.32;;
52043;SDS011;38053;53.100;6.078;2023-07-02T04:28:13;34.38;;;11.25;;
52043;SDS011;38053;53.100;6.078;2023-07-02T04:30:39;26.98;;;7.78;;
52043;SDS011;38053;53.100;6.078;2023-07-02T04:33:04;28.65;;;11.20;;
52043;SDS011;38053;53.100;6.078;2023-07-02T04:35:33;24.73;;;7.63;;
52043;SDS011;38053;53.100;6.078;2023-07-02T04:37:59;22.30;;;8.43;;
52043;SDS011;38053;53.100;6.078;2023-07-02T04:40:25;22.05;;;7.38;;
52043;SDS011;38053;53.100;6.078;2023-07-02T04:42:51;23.20;;;7.50;;
52043;SDS011;38053;53.100;6.078;2023-07-02T04:45:22;20.92;;;8.23;;
52043;SDS011;38053;53.100;6.078;2023-07-02T04:47:49;20.48;;;7.43;;
52043;SDS011;38053;53.100;6.078;2023-07-02T04:50:16;20.50;;;8.98;;
52043;SDS011;38053;53.100;6.078;2023-07-02T04:52:42;25.25;;;7.55;;
52043;SDS011;38053;53.100;6.078;2023-07-02T04:55:08;26.20;;;8.35;;
52043;SDS011;38053;53.100;6.078;2023-07-02T04:57:33;18.52;;;6.85;;
52043;SDS011;38053;53.100;6.078;2023-07-02T04:59:59;25.70;;;8.45;;
52043;SDS011;38053;53.100;6.078;2023-07-02T05:02:25;24.58;;;7.68;;
52043;SDS011;38053;53.100;6.078;2023-07-02T05:04:50;21.45;;;8.27;;
52043;SDS011;38053;53.100;6.078;2023-07-02T05:07:16;26.13;;;8.98;;
52043;SDS011;38053;53.100;6.078;2023-07-02T05:09:42;24.95;;;8.75;;
52043;SDS011;38053;53.100;6.078;2023-07-02T05:12:08;29.88;;;9.75;;
52043;SDS011;38053;53.100;6.078;2023-07-02T05:14:34;28.88;;;8.13;;
52043;SDS011;38053;53.100;6.078;2023-07-02T05:17:00;23.27;;;9.75;;
52043;SDS011;38053;53.100;6.078;2023-07-02T05:19:26;23.10;;;7.88;;
52043;SDS011;38053;53.100;6.078;2023-07-02T05:21:51;32.28;;;9.60;;
52043;SDS011;38053;53.100;6.078;2023-07-02T05:24:18;23.80;;;9.70;;
52043;SDS011;38053;53.100;6.078;2023-07-02T05:26:43;16.98;;;7.10;;
52043;SDS011;38053;53.100;6.078;2023-07-02T05:29:09;21.75;;;7.90;;
52043;SDS011;38053;53.100;6.078;2023-07-02T05:31:35;22.75;;;7.60;;
52043;SDS011;38053;53.100;6.078;2023-07-02T05:34:01;19.13;;;8.15;;
52043;SDS011;38053;53.100;6.078;2023-07-02T05:36:27;24.67;;;7.38;;
52043;SDS011;38053;53.100;6.078;2023-07-02T05:38:52;23.35;;;8.35;;
52043;SDS011;38053;53.100;6.078;2023-07-02T05:41:18;25.58;;;7.93;;
52043;SDS011;38053;53.100;6.078;2023-07-02T05:43:44;23.73;;;7.82;;
52043;SDS011;38053;53.100;6.078;2023-07-02T05:46:10;35.50;;;8.75;;
52043;SDS011;38053;53.100;6.078;2023-07-02T05:48:37;23.88;;;7.00;;
52043;SDS011;38053;53.100;6.078;2023-07-02T05:51:03;21.90;;;7.78;;
52043;SDS011;38053;53.100;6.078;2023-07-02T05:53:28;25.85;;;8.43;;
52043;SDS011;38053;53.100;6.078;2023-07-02T05:55:54;25.48;;;9.25;;
52043;SDS011;38053;53.100;6.078;2023-07-02T05:58:20;30.75;;;8.77;;
52043;SDS011;38053;53.100;6.078;2023-07-02T06:00:46;21.30;;;7.53;;
52043;SDS011;38053;53.100;6.078;2023-07-02T06:03:17;18.38;;;7.18;;
52043;SDS011;38053;53.100;6.078;2023-07-02T06:05:49;23.65;;;8.50;;
52043;SDS011;38053;53.100;6.078;2023-07-02T06:08:15;22.98;;;7.03;;
52043;SDS011;38053;53.100;6.078;2023-07-02T06:10:42;18.67;;;6.85;;
52043;SDS011;38053;53.100;6.078;2023-07-02T06:13:12;20.42;;;7.05;;
52043;SDS011;38053;53.100;6.078;2023-07-02T06:15:38;21.20;;;6.57;;
52043;SDS011;38053;53.100;6.078;2023-07-02T06:18:04;23.27;;;7.80;;
52043;SDS011;38053;53.100;6.078;2023-07-02T06:20:29;21.95;;;6.88;;
52043;SDS011;38053;53.100;6.078;2023-07-02T06:22:55;22.38;;;6.70;;
52043;SDS011;38053;53.100;6.078;2023-07-02T06:25:21;24.88;;;7.53;;
52043;SDS011;38053;53.100;6.078;2023-07-02T06:27:47;18.95;;;7.13;;
52043;SDS011;38053;53.100;6.078;2023-07-02T06:30:12;25.00;;;6.78;;
52043;SDS011;38053;53.100;6.078;2023-07-02T06:32:38;19.48;;;7.65;;
52043;SDS011;38053;53.100;6.078;2023-07-02T06:35:04;19.10;;;7.13;;
52043;SDS011;38053;53.100;6.078;2023-07-02T06:37:33;19.92;;;6.40;;
52043;SDS011;38053;53.100;6.078;2023-07-02T06:39:59;15.27;;;5.72;;
52043;SDS011;38053;53.100;6.078;2023-07-02T06:42:25;14.02;;;4.68;;
52043;SDS011;38053;53.100;6.078;2023-07-02T06:44:51;17.48;;;6.43;;
52043;SDS011;38053;53.100;6.078;2023-07-02T06:47:17;22.55;;;5.78;;
52043;SDS011;38053;53.100;6.078;2023-07-02T06:49:43;19.58;;;6.35;;
52043;SDS011;38053;53.100;6.078;2023-07-02T06:52:09;21.35;;;6.03;;
52043;SDS011;38053;53.100;6.078;2023-07-02T06:54:34;18.20;;;5.97;;
52043;SDS011;38053;53.100;6.078;2023-07-02T06:57:00;18.60;;;5.70;;
52043;SDS011;38053;53.100;6.078;2023-07-02T06:59:26;19.27;;;5.82;;
52043;SDS011;38053;53.100;6.078;2023-07-02T07:01:52;20.95;;;5.70;;
52043;SDS011;38053;53.100;6.078;2023-07-02T07:04:17;15.13;;;4.68;;
52043;SDS011;38053;53.100;6.078;2023-07-02T07:06:43;16.75;;;4.85;;
52043;SDS011;38053;53.100;6.078;2023-07-02T07:09:09;14.50;;;4.47;;
52043;SDS011;38053;53.100;6.078;2023-07-02T07:11:35;18.48;;;6.68;;
52043;SDS011;38053;53.100;6.078;2023-07-02T07:14:01;17.35;;;4.57;;
52043;SDS011;38053;53.100;6.078;2023-07-02T07:16:26;23.00;;;5.47;;
52043;SDS011;38053;53.100;6.078;2023-07-02T07:18:52;16.38;;;4.95;;
52043;SDS011;38053;53.100;6.078;2023-07-02T07:21:18;15.80;;;4.65;;
52043;SDS011;38053;53.100;6.078;2023-07-02T07:23:44;19.70;;;4.75;;
52043;SDS011;38053;53.100;6.078;2023-07-02T07:26:10;18.52;;;5.03;;
52043;SDS011;38053;53.100;6.078;2023-07-02T07:28:35;20.65;;;6.47;;
52043;SDS011;38053;53.100;6.078;2023-07-02T07:31:01;14.57;;;5.28;;
52043;SDS011;38053;53.100;6.078;2023-07-02T07:33:27;26.90;;;5.40;;
52043;SDS011;38053;53.100;6.078;2023-07-02T07:35:53;22.00;;;5.22;;
52043;SDS011;38053;53.100;6.078;2023-07-02T07:38:19;16.38;;;5.13;;
52043;SDS011;38053;53.100;6.078;2023-07-02T07:40:45;17.88;;;4.65;;
52043;SDS011;38053;53.100;6.078;2023-07-02T07:43:11;15.85;;;5.75;;
52043;SDS011;38053;53.100;6.078;2023-07-02T07:45:37;21.75;;;5.97;;
52043;SDS011;38053;53.100;6.078;2023-07-02T07:48:06;13.20;;;4.60;;
52043;SDS011;38053;53.100;6.078;2023-07-02T07:50:32;18.73;;;4.07;;
52043;SDS011;38053;53.100;6.078;2023-07-02T07:52:58;14.35;;;4.13;;
52043;SDS011;38053;53.100;6.078;2023-07-02T07:55:24;16.55;;;5.70;;
52043;SDS011;38053;53.100;6.078;2023-07-02T07:57:49;23.95;;;6.72;;
52043;SDS011;38053;53.100;6.078;2023-07-02T08:00:16;18.83;;;5.70;;
52043;SDS011;38053;53.100;6.078;2023-07-02T08:02:45;17.92;;;5.40;;
52043;SDS011;38053;53.100;6.078;2023-07-02T08:05:14;19.95;;;5.00;;
52043;SDS011;38053;53.100;6.078;2023-07-02T08:07:39;19.10;;;4.28;;
52043;SDS011;38053;53.100;6.078;2023-07-02T08:10:05;15.80;;;5.00;;
52043;SDS011;38053;53.100;6.078;2023-07-02T08:12:33;20.33;;;5.47;;
52043;SDS011;38053;53.100;6.078;2023-07-02T08:14:59;20.65;;;5.82;;
52043;SDS011;38053;53.100;6.078;2023-07-02T08:17:25;17.90;;;5.60;;
52043;SDS011;38053;53.100;6.078;2023-07-02T08:19:50;15.23;;;5.93;;
52043;SDS011;38053;53.100;6.078;2023-07-02T08:22:16;16.65;;;5.63;;
52043;SDS011;38053;53.100;6.078;2023-07-02T08:24:42;18.80;;;5.05;;
52043;SDS011;38053;53.100;6.078;2023-07-02T08:27:08;16.67;;;5.82;;
52043;SDS011;38053;53.100;6.078;2023-07-02T08:29:35;15.00;;;5.18;;
52043;SDS011;38053;53.100;6.078;2023-07-02T08:32:01;18.30;;;5.28;;
52043;SDS011;38053;53.100;6.078;2023-07-02T08:34:26;16.75;;;4.03;;
52043;SDS011;38053;53.100;6.078;2023-07-02T08:36:52;21.05;;;6.22;;
52043;SDS011;38053;53.100;6.078;2023-07-02T08:39:18;19.23;;;4.47;;
52043;SDS011;38053;53.100;6.078;2023-07-02T08:44:19;17.55;;;5.10;;
52043;SDS011;38053;53.100;6.078;2023-07-02T08:46:45;15.40;;;4.30;;
52043;SDS011;38053;53.100;6.078;2023-07-02T08:49:15;14.77;;;4.73;;
52043;SDS011;38053;53.100;6.078;2023-07-02T08:51:42;16.38;;;5.07;;
52043;SDS011;38053;53.100;6.078;2023-07-02T08:54:10;18.02;;;6.45;;
52043;SDS011;38053;53.100;6.078;2023-07-02T08:56:36;18.77;;;5.40;;
52043;SDS011;38053;53.100;6.078;2023-07-02T08:59:01;19.02;;;4.45;;
52043;SDS011;38053;53.100;6.078;2023-07-02T09:01:27;18.33;;;5.18;;
52043;SDS011;38053;53.100;6.078;2023-07-02T09:03:57;11.40;;;4.03;;
52043;SDS011;38053;53.100;6.078;2023-07-02T09:06:25;15.15;;;5.28;;
52043;SDS011;38053;53.100;6.078;2023-07-02T09:08:51;18.60;;;5.10;;
52043;SDS011;38053;53.100;6.078;2023-07-02T09:11:16;16.17;;;5.13;;
52043;SDS011;38053;53.100;6.078;2023-07-02T09:13:50;12.27;;;3.75;;
52043;SDS011;38053;53.100;6.078;2023-07-02T09:19:03;16.02;;;4.07;;
52043;SDS011;38053;53.100;6.078;2023-07-02T09:21:37;14.32;;;4.05;;
52043;SDS011;38053;53.100;6.078;2023-07-02T09:24:11;13.55;;;4.53;;
52043;SDS011;38053;53.100;6.078;2023-07-02T09:26:41;12.60;;;4.15;;
52043;SDS011;38053;53.100;6.078;2023-07-02T09:29:08;13.25;;;4.50;;
52043;SDS011;38053;53.100;6.078;2023-07-02T09:31:42;17.73;;;4.60;;
52043;SDS011;38053;53.100;6.078;2023-07-02T09:34:12;15.93;;;4.88;;
52043;SDS011;38053;53.100;6.078;2023-07-02T09:36:38;19.80;;;5.38;;
52043;SDS011;38053;53.100;6.078;2023-07-02T09:39:11;17.02;;;4.60;;
52043;SDS011;38053;53.100;6.078;2023-07-02T09:41:44;24.00;;;6.07;;
52043;SDS011;38053;53.100;6.078;2023-07-02T09:44:14;18.83;;;4.80;;
52043;SDS011;38053;53.100;6.078;2023-07-02T09:46:49;15.85;;;5.30;;
52043;SDS011;38053;53.100;6.078;2023-07-02T09:49:23;15.40;;;4.78;;
52043;SDS011;38053;53.100;6.078;2023-07-02T09:51:50;17.20;;;5.40;;
52043;SDS011;38053;53.100;6.078;2023-07-02T09:54:16;17.45;;;4.80;;
52043;SDS011;38053;53.100;6.078;2023-07-02T09:56:45;13.07;;;4.90;;
52043;SDS011;38053;53.100;6.078;2023-07-02T09:59:11;11.73;;;4.90;;
52043;SDS011;38053;53.100;6.078;2023-07-02T10:01:36;13.88;;;6.32;;
52043;SDS011;38053;53.100;6.078;2023-07-02T10:04:15;14.75;;;5.53;;
52043;SDS011;38053;53.100;6.078;2023-07-02T10:06:53;11.77;;;4.30;;
52043;SDS011;38053;53.100;6.078;2023-07-02T10:09:20;13.93;;;4.18;;
52043;SDS011;38053;53.100;6.078;2023-07-02T10:11:58;12.15;;;4.10;;
52043;SDS011;38053;53.100;6.078;2023-07-02T10:14:24;10.05;;;3.83;;
52043;SDS011;38053;53.100;6.078;2023-07-02T10:19:19;13.75;;;4.70;;
52043;SDS011;38053;53.100;6.078;2023-07-02T10:21:46;14.45;;;4.43;;
52043;SDS011;38053;53.100;6.078;2023-07-02T10:24:15;19.83;;;5.97;;
52043;SDS011;38053;53.100;6.078;2023-07-02T10:26:55;15.45;;;4.63;;
52043;SDS011;38053;53.100;6.078;2023-07-02T10:29:22;17.58;;;5.07;;
52043;SDS011;38053;53.100;6.078;2023-07-02T10:31:53;14.75;;;4.63;;
52043;SDS011;38053;53.100;6.078;2023-07-02T10:36:56;15.52;;;4.78;;
52043;SDS011;38053;53.100;6.078;2023-07-02T10:39:22;18.23;;;5.80;;
52043;SDS011;38053;53.100;6.078;2023-07-02T10:41:48;13.90;;;4.15;;
52043;SDS011;38053;53.100;6.078;2023-07-02T10:44:14;13.07;;;4.00;;
52043;SDS011;38053;53.100;6.078;2023-07-02T10:46:47;20.38;;;4.00;;
52043;SDS011;38053;53.100;6.078;2023-07-02T10:49:17;15.88;;;4.03;;
52043;SDS011;38053;53.100;6.078;2023-07-02T10:51:44;20.92;;;4.20;;
52043;SDS011;38053;53.100;6.078;2023-07-02T10:54:10;16.55;;;4.00;;
52043;SDS011;38053;53.100;6.078;2023-07-02T10:56:36;11.25;;;4.07;;
52043;SDS011;38053;53.100;6.078;2023-07-02T10:59:02;12.02;;;4.10;;
52043;SDS011;38053;53.100;6.078;2023-07-02T11:01:29;9.73;;;3.75;;
52043;SDS011;38053;53.100;6.078;2023-07-02T11:04:02;11.85;;;3.70;;
52043;SDS011;38053;53.100;6.078;2023-07-02T11:06:30;16.60;;;4.15;;
52043;SDS011;38053;53.100;6.078;2023-07-02T11:08:58;16.27;;;4.25;;
52043;SDS011;38053;53.100;6.078;2023-07-02T11:11:25;17.85;;;4.90;;
52043;SDS011;38053;53.100;6.078;2023-07-02T11:13:51;15.07;;;4.05;;
52043;SDS011;38053;53.100;6.078;2023-07-02T11:18:49;15.02;;;4.40;;
52043;SDS011;38053;53.100;6.078;2023-07-02T11:21:15;12.00;;;3.67;;
52043;SDS011;38053;53.100;6.078;2023-07-02T11:23:41;16.77;;;3.63;;
52043;SDS011;38053;53.100;6.078;2023-07-02T11:26:07;13.55;;;3.95;;
52043;SDS011;38053;53.100;6.078;2023-07-02T11:28:33;14.73;;;4.00;;
52043;SDS011;38053;53.100;6.078;2023-07-02T11:31:02;13.52;;;4.05;;
52043;SDS011;38053;53.100;6.078;2023-07-02T11:33:33;21.25;;;4.03;;
52043;SDS011;38053;53.100;6.078;2023-07-02T11:36:02;16.27;;;4.03;;
52043;SDS011;38053;53.100;6.078;2023-07-02T11:38:29;12.98;;;3.95;;
52043;SDS011;38053;53.100;6.078;2023-07-02T11:40:55;14.20;;;3.67;;
52043;SDS011;38053;53.100;6.078;2023-07-02T11:43:20;15.35;;;4.05;;
52043;SDS011;38053;53.100;6.078;2023-07-02T11:45:46;11.15;;;3.55;;
52043;SDS011;38053;53.100;6.078;2023-07-02T11:48:12;9.20;;;3.20;;
52043;SDS011;38053;53.100;6.078;2023-07-02T11:50:38;9.88;;;3.38;;
52043;SDS011;38053;53.100;6.078;2023-07-02T11:53:03;11.65;;;3.50;;
52043;SDS011;38053;53.100;6.078;2023-07-02T11:55:29;10.38;;;3.72;;
52043;SDS011;38053;53.100;6.078;2023-07-02T11:57:55;15.23;;;4.43;;
52043;SDS011;38053;53.100;6.078;2023-07-02T12:00:21;11.82;;;3.55;;
52043;SDS011;38053;53.100;6.078;2023-07-02T12:02:47;10.25;;;3.22;;
52043;SDS011;38053;53.100;6.078;2023-07-02T12:05:13;14.27;;;3.80;;
52043;SDS011;38053;53.100;6.078;2023-07-02T12:07:39;13.05;;;4.85;;
52043;SDS011;38053;53.100;6.078;2023-07-02T12:10:05;14.35;;;4.43;;
52043;SDS011;38053;53.100;6.078;2023-07-02T12:12:32;9.23;;;3.72;;
52043;SDS011;38053;53.100;6.078;2023-07-02T12:14:58;18.05;;;3.60;;
52043;SDS011;38053;53.100;6.078;2023-07-02T12:17:23;13.73;;;5.22;;
52043;SDS011;38053;53.100;6.078;2023-07-02T12:19:49;9.32;;;3.95;;
52043;SDS011;38053;53.100;6.078;2023-07-02T12:22:15;13.27;;;4.30;;
52043;SDS011;38053;53.100;6.078;2023-07-02T12:24:43;13.90;;;4.35;;
52043;SDS011;38053;53.100;6.078;2023-07-02T12:27:09;12.52;;;5.05;;
52043;SDS011;38053;53.100;6.078;2023-07-02T12:29:35;16.10;;;4.97;;
52043;SDS011;38053;53.100;6.078;2023-07-02T12:32:02;17.48;;;5.25;;
52043;SDS011;38053;53.100;6.078;2023-07-02T12:34:28;14.02;;;4.38;;
52043;SDS011;38053;53.100;6.078;2023-07-02T12:36:56;21.17;;;5.90;;
52043;SDS011;38053;53.100;6.078;2023-07-02T12:39:21;18.85;;;6.47;;
52043;SDS011;38053;53.100;6.078;2023-07-02T12:41:47;17.88;;;5.95;;
52043;SDS011;38053;53.100;6.078;2023-07-02T12:44:13;13.70;;;5.50;;
52043;SDS011;38053;53.100;6.078;2023-07-02T12:46:38;16.58;;;6.13;;
52043;SDS011;38053;53.100;6.078;2023-07-02T12:49:04;20.17;;;6.47;;
52043;SDS011;38053;53.100;6.078;2023-07-02T12:51:30;25.00;;;7.57;;
52043;SDS011;38053;53.100;6.078;2023-07-02T12:53:56;12.75;;;6.65;;
52043;SDS011;38053;53.100;6.078;2023-07-02T12:56:22;25.42;;;6.53;;
52043;SDS011;38053;53.100;6.078;2023-07-02T12:58:47;20.92;;;6.70;;
52043;SDS011;38053;53.100;6.078;2023-07-02T13:01:13;15.68;;;5.95;;
52043;SDS011;38053;53.100;6.078;2023-07-02T13:03:44;16.92;;;6.05;;
52043;SDS011;38053;53.100;6.078;2023-07-02T13:06:13;17.90;;;5.88;;
52043;SDS011;38053;53.100;6.078;2023-07-02T13:08:39;16.52;;;6.75;;
52043;SDS011;38053;53.100;6.078;2023-07-02T13:11:05;19.45;;;6.65;;
52043;SDS011;38053;53.100;6.078;2023-07-02T13:13:30;14.73;;;5.45;;
52043;SDS011;38053;53.100;6.078;2023-07-02T13:15:56;20.88;;;6.40;;
52043;SDS011;38053;53.100;6.078;2023-07-02T13:18:22;15.50;;;6.13;;
52043;SDS011;38053;53.100;6.078;2023-07-02T13:20:48;13.65;;;5.38;;
52043;SDS011;38053;53.100;6.078;2023-07-02T13:23:14;22.17;;;6.50;;
52043;SDS011;38053;53.100;6.078;2023-07-02T13:25:40;19.63;;;6.68;;
52043;SDS011;38053;53.100;6.078;2023-07-02T13:28:05;16.90;;;6.30;;
52043;SDS011;38053;53.100;6.078;2023-07-02T13:30:31;21.10;;;6.47;;
52043;SDS011;38053;53.100;6.078;2023-07-02T13:32:57;17.42;;;5.93;;
52043;SDS011;38053;53.100;6.078;2023-07-02T13:35:23;17.45;;;6.53;;
52043;SDS011;38053;53.100;6.078;2023-07-02T13:37:49;13.38;;;5.90;;
52043;SDS011;38053;53.100;6.078;2023-07-02T13:40:14;20.10;;;6.65;;
52043;SDS011;38053;53.100;6.078;2023-07-02T13:42:41;18.17;;;6.28;;
52043;SDS011;38053;53.100;6.078;2023-07-02T13:45:07;15.82;;;5.95;;
52043;SDS011;38053;53.100;6.078;2023-07-02T13:47:34;18.52;;;5.80;;
52043;SDS011;38053;53.100;6.078;2023-07-02T13:50:02;19.92;;;6.55;;
52043;SDS011;38053;53.100;6.078;2023-07-02T13:52:29;22.02;;;7.10;;
52043;SDS011;38053;53.100;6.078;2023-07-02T13:54:55;19.30;;;6.43;;
52043;SDS011;38053;53.100;6.078;2023-07-02T13:57:21;16.98;;;6.13;;
52043;SDS011;38053;53.100;6.078;2023-07-02T13:59:47;19.83;;;6.50;;
52043;SDS011;38053;53.100;6.078;2023-07-02T14:02:13;20.35;;;6.28;;
52043;SDS011;38053;53.100;6.078;2023-07-02T14:04:39;14.25;;;5.75;;
52043;SDS011;38053;53.100;6.078;2023-07-02T14:07:04;17.25;;;5.28;;
52043;SDS011;38053;53.100;6.078;2023-07-02T14:09:30;25.67;;;5.90;;
52043;SDS011;38053;53.100;6.078;2023-07-02T14:11:56;15.30;;;5.75;;
52043;SDS011;38053;53.100;6.078;2023-07-02T14:14:22;16.35;;;6.30;;
52043;SDS011;38053;53.100;6.078;2023-07-02T14:16:48;13.85;;;5.50;;
52043;SDS011;38053;53.100;6.078;2023-07-02T14:19:13;13.18;;;5.25;;
52043;SDS011;38053;53.100;6.078;2023-07-02T14:21:40;16.63;;;4.93;;
52043;SDS011;38053;53.100;6.078;2023-07-02T14:24:05;11.00;;;4.28;;
52043;SDS011;38053;53.100;6.078;2023-07-02T14:26:31;12.63;;;5.53;;
52043;SDS011;38053;53.100;6.078;2023-07-02T14:28:57;12.05;;;5.53;;
52043;SDS011;38053;53.100;6.078;2023-07-02T14:31:23;13.27;;;4.53;;
52043;SDS011;38053;53.100;6.078;2023-07-02T14:33:49;18.75;;;6.68;;
52043;SDS011;38053;53.100;6.078;2023-07-02T14:36:15;14.35;;;5.13;;
52043;SDS011;38053;53.100;6.078;2023-07-02T14:38:41;11.32;;;4.70;;
52043;SDS011;38053;53.100;6.078;2023-07-02T14:41:06;16.02;;;6.57;;